createdAt,value
2023-01-13T00:01:14.131Z,99863.81
2023-01-13T00:03:41.612Z,99872.41
2023-01-13T00:06:12.548Z,99874.13
2023-01-13T00:08:39.107Z,99884.47
2023-01-13T00:11:05.733Z,99882.69
2023-01-13T00:13:33.682Z,99886.13
2023-01-13T00:16:05.152Z,99880.09
2023-01-13T00:18:33.099Z,99881.78
2023-01-13T00:21:21.119Z,99885.22
2023-01-13T00:23:48.307Z,99890.38
2023-01-13T00:26:17.642Z,99889.47
2023-01-13T00:28:44.224Z,99898.00
2023-01-13T00:31:13.680Z,99885.94
2023-01-13T00:33:40.791Z,99894.47
2023-01-13T00:36:10.624Z,99878.13
2023-01-13T00:38:38.893Z,99885.81
2023-01-13T00:41:07.940Z,99866.84
2023-01-13T00:43:36.186Z,99875.38
2023-01-13T00:46:05.008Z,99871.00
2023-01-13T00:48:32.692Z,99856.34
2023-01-13T00:51:02.060Z,99870.88
2023-01-13T00:53:29.917Z,99883.72
2023-01-13T00:56:04.597Z,99873.31
2023-01-13T00:58:33.135Z,99877.59
2023-01-13T01:01:04.465Z,99872.41
2023-01-13T01:03:31.364Z,99880.13
2023-01-13T01:06:05.362Z,99879.25
2023-01-13T01:08:32.070Z,99884.41
2023-01-13T01:11:13.595Z,99898.06
2023-01-13T01:13:40.628Z,99896.25
2023-01-13T01:16:09.382Z,99904.03
2023-01-13T01:18:38.199Z,99903.16
2023-01-13T01:21:06.050Z,99897.97
2023-01-13T01:23:33.692Z,99899.75
2023-01-13T01:26:05.986Z,99898.88
2023-01-13T01:28:33.607Z,99910.94
2023-01-13T01:31:00.420Z,99913.50
2023-01-13T01:33:26.959Z,99916.09
2023-01-13T01:35:54.724Z,99910.94
2023-01-13T01:38:23.350Z,99909.19
2023-01-13T01:40:50.042Z,99914.34
2023-01-13T01:43:37.471Z,99904.94
2023-01-13T01:46:04.732Z,99909.19
2023-01-13T01:48:38.178Z,99920.44
2023-01-13T01:51:09.184Z,99927.28
2023-01-13T01:53:35.898Z,99922.09
2023-01-13T01:56:03.510Z,99915.25
2023-01-13T01:58:37.570Z,99921.25
2023-01-13T02:01:04.574Z,99921.31
2023-01-13T02:03:31.367Z,99917.88
2023-01-13T02:05:58.044Z,99910.94
2023-01-13T02:08:25.089Z,99928.94
2023-01-13T02:10:54.242Z,99926.34
2023-01-13T02:13:22.622Z,99925.53
2023-01-13T02:15:58.414Z,99930.63
2023-01-13T02:18:44.289Z,99924.63
2023-01-13T02:21:32.772Z,99926.38
2023-01-13T02:24:42.622Z,99926.34
2023-01-13T02:27:44.150Z,99922.03
2023-01-13T02:30:59.304Z,99925.47
2023-01-13T02:33:34.592Z,99920.31
2023-01-13T02:36:27.160Z,99917.69
2023-01-13T02:39:00.941Z,99924.56
2023-01-13T02:41:52.750Z,99914.22
2023-01-13T02:44:25.567Z,99915.06
2023-01-13T02:46:59.556Z,99914.16
2023-01-13T02:49:30.323Z,99914.97
2023-01-13T02:52:06.143Z,99924.41
2023-01-13T02:54:35.368Z,99916.56
2023-01-13T02:57:03.520Z,99924.31
2023-01-13T02:59:31.500Z,99919.13
2023-01-13T03:01:59.796Z,99921.69
2023-01-13T03:04:48.255Z,99916.50
2023-01-13T03:07:41.243Z,99933.66
2023-01-13T03:10:22.380Z,99940.47
2023-01-13T03:13:20.332Z,99945.59
2023-01-13T03:16:11.916Z,99954.16
2023-01-13T03:19:05.712Z,99952.50
2023-01-13T03:21:52.215Z,99943.03
2023-01-13T03:24:21.344Z,99954.09
2023-01-13T03:27:15.095Z,99963.50
2023-01-13T03:29:58.848Z,99972.03
2023-01-13T03:32:30.960Z,99964.19
2023-01-13T03:35:07.478Z,99966.78
2023-01-13T03:37:38.555Z,99971.09
2023-01-13T03:40:13.983Z,99967.63
2023-01-13T03:43:03.207Z,99961.66
2023-01-13T03:45:32.747Z,99963.31
2023-01-13T03:48:01.099Z,99948.66
2023-01-13T03:50:37.233Z,99960.69
2023-01-13T03:53:10.322Z,99967.50
2023-01-13T03:55:43.868Z,99961.44
2023-01-13T03:58:27.625Z,99951.97
2023-01-13T04:01:05.825Z,99951.06
2023-01-13T04:03:40.799Z,99959.53
2023-01-13T04:06:18.355Z,99948.34
2023-01-13T04:08:52.840Z,99950.88
2023-01-13T04:11:27.992Z,99948.22
2023-01-13T04:13:56.065Z,99937.97
2023-01-13T04:16:22.664Z,99938.78
2023-01-13T04:18:50.055Z,99933.56
2023-01-13T04:21:16.408Z,99925.84
2023-01-13T04:23:42.888Z,99925.78
2023-01-13T04:26:09.213Z,99931.88
2023-01-13T04:28:35.619Z,99930.91
2023-01-13T04:31:01.969Z,99938.59
2023-01-13T04:33:28.502Z,99942.91
2023-01-13T04:35:55.135Z,99945.47
2023-01-13T04:38:22.045Z,99947.09
2023-01-13T04:40:48.660Z,99944.50
2023-01-13T04:43:15.984Z,99936.81
2023-01-13T04:45:42.973Z,99940.22
2023-01-13T04:48:10.106Z,99931.59
2023-01-13T04:50:36.637Z,99934.16
2023-01-13T04:53:03.279Z,99935.91
2023-01-13T04:55:29.822Z,99939.31
2023-01-13T04:58:01.975Z,99939.31
2023-01-13T05:00:28.333Z,99937.69
2023-01-13T05:02:54.875Z,99928.25
2023-01-13T05:05:21.216Z,99943.69
2023-01-13T05:07:47.580Z,99942.78
2023-01-13T05:10:14.424Z,99935.91
2023-01-13T05:12:59.698Z,99933.31
2023-01-13T05:15:44.643Z,99923.91
2023-01-13T05:18:11.704Z,99923.84
2023-01-13T05:20:38.303Z,99923.06
2023-01-13T05:23:23.606Z,99916.13
2023-01-13T05:25:50.053Z,99917.84
2023-01-13T05:28:16.518Z,99916.97
2023-01-13T05:30:45.977Z,99919.56
2023-01-13T05:33:17.973Z,99915.31
2023-01-13T05:35:46.005Z,99911.06
2023-01-13T05:38:13.582Z,99909.41
2023-01-13T05:41:06.882Z,99916.31
2023-01-13T05:43:34.812Z,99910.34
2023-01-13T05:46:05.788Z,99908.63
2023-01-13T05:48:34.875Z,99916.31
2023-01-13T05:51:03.157Z,99912.91
2023-01-13T05:53:29.839Z,99913.75
2023-01-13T05:55:56.500Z,99915.50
2023-01-13T05:58:25.786Z,99909.50
2023-01-13T06:00:52.621Z,99920.66
2023-01-13T06:03:20.176Z,99923.25
2023-01-13T06:05:47.599Z,99913.88
2023-01-13T06:08:14.130Z,99916.47
2023-01-13T06:10:40.508Z,99914.75
2023-01-13T06:13:07.040Z,99916.41
2023-01-13T06:15:33.406Z,99906.16
2023-01-13T06:18:02.609Z,99909.56
2023-01-13T06:20:29.037Z,99909.50
2023-01-13T06:22:55.610Z,99907.75
2023-01-13T06:25:34.077Z,99902.63
2023-01-13T06:28:00.638Z,99902.56
2023-01-13T06:30:31.376Z,99905.13
2023-01-13T06:32:59.480Z,99909.53
2023-01-13T06:35:31.793Z,99906.94
2023-01-13T06:38:01.447Z,99907.75
2023-01-13T06:40:28.085Z,99890.59
2023-01-13T06:43:16.542Z,99901.72
2023-01-13T06:45:50.905Z,99893.97
2023-01-13T06:48:18.853Z,99902.56
2023-01-13T06:50:45.218Z,99894.00
2023-01-13T06:53:11.598Z,99896.56
2023-01-13T06:55:37.964Z,99910.31
2023-01-13T06:58:04.808Z,99916.34
2023-01-13T07:00:32.667Z,99912.94
2023-01-13T07:03:12.587Z,99918.09
2023-01-13T07:05:40.214Z,99913.03
2023-01-13T07:08:07.163Z,99911.31
2023-01-13T07:10:34.829Z,99922.38
2023-01-13T07:13:21.889Z,99912.16
2023-01-13T07:15:59.402Z,99913.00
2023-01-13T07:18:27.667Z,99916.47
2023-01-13T07:20:56.054Z,99908.78
2023-01-13T07:23:22.761Z,99913.81
2023-01-13T07:25:49.262Z,99912.94
2023-01-13T07:28:15.866Z,99908.69
2023-01-13T07:30:42.258Z,99919.84
2023-01-13T07:33:08.609Z,99910.34
2023-01-13T07:35:35.178Z,99907.03
2023-01-13T07:38:01.503Z,99909.50
2023-01-13T07:40:27.914Z,99913.88
2023-01-13T07:43:13.042Z,99907.06
2023-01-13T07:45:39.545Z,99923.31
2023-01-13T07:48:06.016Z,99907.09
2023-01-13T07:50:32.462Z,99908.88
2023-01-13T07:52:59.007Z,99907.19
2023-01-13T07:55:25.465Z,99916.69
2023-01-13T07:57:51.790Z,99908.13
2023-01-13T08:00:18.748Z,99919.25
2023-01-13T08:02:45.107Z,99903.03
2023-01-13T08:05:11.551Z,99908.25
2023-01-13T08:07:37.877Z,99909.97
2023-01-13T08:10:04.533Z,99913.31
2023-01-13T08:12:51.818Z,99896.19
2023-01-13T08:15:22.088Z,99896.34
2023-01-13T08:17:48.408Z,99898.03
2023-01-13T08:20:15.074Z,99890.34
2023-01-13T08:22:41.445Z,99895.50
2023-01-13T08:25:08.315Z,99893.78
2023-01-13T08:27:34.659Z,99911.81
2023-01-13T08:30:01.077Z,99915.31
2023-01-13T08:32:27.474Z,99910.19
2023-01-13T08:34:53.995Z,99911.09
2023-01-13T08:37:20.378Z,99915.38
2023-01-13T08:39:46.775Z,99911.97
2023-01-13T08:42:13.111Z,99910.22
2023-01-13T08:44:39.482Z,99899.91
2023-01-13T08:47:06.039Z,99935.16
2023-01-13T08:49:32.503Z,99904.28
2023-01-13T08:51:58.823Z,99909.44
2023-01-13T08:54:25.234Z,99905.13
2023-01-13T08:56:51.661Z,99902.56
2023-01-13T08:59:19.760Z,99921.47
2023-01-13T09:01:46.401Z,99902.63
2023-01-13T09:04:19.793Z,99900.84
2023-01-13T09:06:47.233Z,99907.72
2023-01-13T09:09:13.709Z,99906.91
2023-01-13T09:12:00.988Z,99901.81
2023-01-13T09:14:32.057Z,99915.56
2023-01-13T09:16:59.561Z,99899.28
2023-01-13T09:19:27.050Z,99893.31
2023-01-13T09:21:54.449Z,99900.22
2023-01-13T09:24:21.208Z,99911.34
2023-01-13T09:26:48.759Z,99902.78
2023-01-13T09:29:15.545Z,99922.47
2023-01-13T09:31:44.209Z,99907.84
2023-01-13T09:34:37.973Z,99903.53
2023-01-13T09:37:06.327Z,99928.41
2023-01-13T09:39:33.728Z,99912.13
2023-01-13T09:42:25.484Z,99918.19
2023-01-13T09:45:05.835Z,99907.00
2023-01-13T09:47:40.965Z,99915.56
2023-01-13T09:50:23.776Z,99897.53
2023-01-13T09:52:50.565Z,99914.59
2023-01-13T09:55:22.628Z,99907.69
2023-01-13T09:57:49.085Z,99899.19
2023-01-13T10:00:24.059Z,99906.97
2023-01-13T10:03:15.639Z,99889.81
2023-01-13T10:05:50.747Z,99903.53
2023-01-13T10:08:24.554Z,99907.84
2023-01-13T10:10:59.641Z,99920.72
2023-01-13T10:13:30.968Z,99902.72
2023-01-13T10:16:22.591Z,99906.16
2023-01-13T10:19:29.401Z,99919.94
2023-01-13T10:22:43.555Z,99912.25
2023-01-13T10:25:22.211Z,99901.97
2023-01-13T10:27:50.674Z,99910.44
2023-01-13T10:30:32.192Z,99915.59
2023-01-13T10:33:01.344Z,99908.66
2023-01-13T10:36:05.079Z,99931.00
2023-01-13T10:38:34.439Z,99937.78
2023-01-13T10:41:03.650Z,99940.25
2023-01-13T10:43:30.705Z,99949.47
2023-01-13T10:46:06.187Z,99950.16
2023-01-13T10:48:51.181Z,99942.28
2023-01-13T10:51:27.004Z,99951.56
2023-01-13T10:54:15.362Z,99954.91
2023-01-13T10:56:44.862Z,99947.16
2023-01-13T10:59:24.823Z,99944.59
2023-01-13T11:02:24.838Z,99938.59
2023-01-13T11:05:02.966Z,99942.00
2023-01-13T11:07:50.357Z,99925.63
2023-01-13T11:10:27.424Z,99939.44
2023-01-13T11:13:01.152Z,99925.88
2023-01-13T11:15:43.512Z,99940.63
2023-01-13T11:18:37.696Z,99945.00
2023-01-13T11:21:14.584Z,99923.75
2023-01-13T11:23:48.836Z,99924.78
2023-01-13T11:26:23.789Z,99920.56
2023-01-13T11:29:08.991Z,99924.03
2023-01-13T11:31:43.677Z,99922.31
2023-01-13T11:34:39.266Z,99915.53
2023-01-13T11:37:27.842Z,99924.06
2023-01-13T11:40:01.477Z,99929.13
2023-01-13T11:42:36.642Z,99923.88
2023-01-13T11:45:28.672Z,99946.16
2023-01-13T11:47:58.217Z,99933.19
2023-01-13T11:50:41.171Z,99928.88
2023-01-13T11:53:21.298Z,99928.88
2023-01-13T11:56:20.029Z,99946.00
2023-01-13T11:59:24.063Z,99935.63
2023-01-13T12:02:23.681Z,99936.38
2023-01-13T12:05:01.840Z,99938.88
2023-01-13T12:07:47.116Z,99939.72
2023-01-13T12:10:41.496Z,99933.66
2023-01-13T12:13:26.796Z,99927.66
2023-01-13T12:16:07.964Z,99931.97
2023-01-13T12:18:55.700Z,99926.84
2023-01-13T12:21:29.650Z,99936.28
2023-01-13T12:24:21.219Z,99929.44
2023-01-13T12:26:55.599Z,99941.47
2023-01-13T12:29:30.590Z,99928.59
2023-01-13T12:31:59.953Z,99932.84
2023-01-13T12:34:49.712Z,99940.56
2023-01-13T12:37:37.205Z,99940.56
2023-01-13T12:40:46.943Z,99945.69
2023-01-13T12:43:42.806Z,99981.59
2023-01-13T12:46:21.337Z,99950.72
2023-01-13T12:48:57.247Z,99961.72
2023-01-13T12:51:55.988Z,99968.56
2023-01-13T12:54:37.591Z,99965.09
2023-01-13T12:57:16.315Z,99958.28
2023-01-13T13:00:05.753Z,99967.72
2023-01-13T13:02:39.986Z,99959.06
2023-01-13T13:05:15.643Z,99961.75
2023-01-13T13:07:46.589Z,99964.41
2023-01-13T13:10:34.085Z,99957.66
2023-01-13T13:13:18.010Z,99963.72
2023-01-13T13:15:49.421Z,99962.03
2023-01-13T13:18:19.502Z,99979.13
2023-01-13T13:20:57.064Z,99980.91
2023-01-13T13:23:39.335Z,99964.66
2023-01-13T13:26:24.680Z,99965.53
2023-01-13T13:29:21.884Z,99974.09
2023-01-13T13:32:14.085Z,99987.81
2023-01-13T13:35:09.766Z,99973.19
2023-01-13T13:38:16.473Z,99977.38
2023-01-13T13:41:04.803Z,99991.97
2023-01-13T13:43:56.541Z,99997.88
2023-01-13T13:46:46.968Z,100001.38
2023-01-13T13:49:20.036Z,99997.75
2023-01-13T13:51:54.428Z,100000.28
2023-01-13T13:54:22.727Z,100005.34
2023-01-13T13:56:50.690Z,99995.88
2023-01-13T13:59:24.557Z,100003.56
2023-01-13T14:02:01.604Z,99999.25
2023-01-13T14:04:31.215Z,99991.59
2023-01-13T14:07:00.694Z,100007.88
2023-01-13T14:09:39.491Z,100006.97
2023-01-13T14:12:17.519Z,100005.28
2023-01-13T14:14:44.556Z,100005.28
2023-01-13T14:17:24.339Z,100004.38
2023-01-13T14:19:59.271Z,99993.25
2023-01-13T14:22:25.917Z,99982.97
2023-01-13T14:24:57.550Z,99990.78
2023-01-13T14:27:29.156Z,99980.44
2023-01-13T14:29:58.791Z,99988.25
2023-01-13T14:32:35.212Z,99984.94
2023-01-13T14:35:01.977Z,99988.41
2023-01-13T14:37:28.251Z,99983.31
2023-01-13T14:39:54.730Z,99984.22
2023-01-13T14:42:22.080Z,99997.06
2023-01-13T14:44:51.771Z,100008.25
2023-01-13T14:47:27.821Z,100011.75
2023-01-13T14:50:06.361Z,100018.53
2023-01-13T14:52:48.399Z,100053.63
2023-01-13T14:55:30.029Z,100058.72
2023-01-13T14:58:21.245Z,100060.31
2023-01-13T15:00:48.777Z,100068.69
2023-01-13T15:03:17.937Z,100087.47
2023-01-13T15:05:52.377Z,100082.16
2023-01-13T15:08:29.192Z,100077.81
2023-01-13T15:11:01.054Z,100071.69
2023-01-13T15:13:35.237Z,100068.19
2023-01-13T15:16:05.702Z,100064.66
2023-01-13T15:18:32.508Z,100069.78
2023-01-13T15:20:58.876Z,100072.25
2023-01-13T15:23:25.266Z,100074.66
2023-01-13T15:25:51.782Z,100099.50
2023-01-13T15:28:21.959Z,100113.97
2023-01-13T15:30:49.625Z,100104.47
2023-01-13T15:33:16.955Z,100130.78
2023-01-13T15:35:49.095Z,100104.28
2023-01-13T15:38:19.598Z,100120.41
2023-01-13T15:40:47.538Z,100102.25
2023-01-13T15:43:34.325Z,100096.38
2023-01-13T15:46:21.143Z,100098.88
2023-01-13T15:48:50.124Z,100117.66
2023-01-13T15:51:21.176Z,100122.78
2023-01-13T15:53:47.524Z,100125.22
2023-01-13T15:56:25.341Z,100122.63
2023-01-13T15:58:52.339Z,100121.69
2023-01-13T16:01:18.806Z,100113.97
2023-01-13T16:03:45.253Z,100111.44
2023-01-13T16:06:18.294Z,100132.03
2023-01-13T16:08:44.749Z,100118.41
2023-01-13T16:11:12.139Z,100128.78
2023-01-13T16:13:38.791Z,100128.97
2023-01-13T16:16:17.931Z,100135.97
2023-01-13T16:18:44.627Z,100145.44
2023-01-13T16:21:12.998Z,100160.09
2023-01-13T16:23:39.778Z,100161.72
2023-01-13T16:26:13.088Z,100165.97
2023-01-13T16:28:39.698Z,100188.31
2023-01-13T16:31:23.525Z,100194.16
2023-01-13T16:33:50.345Z,100193.31
2023-01-13T16:36:18.275Z,100196.66
2023-01-13T16:38:44.653Z,100174.41
2023-01-13T16:41:11.065Z,100194.84
2023-01-13T16:43:37.765Z,100179.41
2023-01-13T16:46:24.607Z,100183.81
2023-01-13T16:48:53.069Z,100182.94
2023-01-13T16:51:21.101Z,100192.34
2023-01-13T16:53:47.934Z,100193.34
2023-01-13T16:56:22.307Z,100187.34
2023-01-13T16:58:49.191Z,100195.00
2023-01-13T17:01:21.533Z,100201.81
2023-01-13T17:03:49.275Z,100199.97
2023-01-13T17:06:17.381Z,100212.91
2023-01-13T17:08:43.775Z,100206.91
2023-01-13T17:11:10.213Z,100210.41
2023-01-13T17:13:36.953Z,100199.38
2023-01-13T17:16:03.382Z,100210.38
2023-01-13T17:18:29.856Z,100210.38
2023-01-13T17:20:58.013Z,100212.13
2023-01-13T17:23:24.891Z,100207.78
2023-01-13T17:25:54.658Z,100201.78
2023-01-13T17:28:21.184Z,100215.50
2023-01-13T17:30:47.905Z,100218.97
2023-01-13T17:33:14.293Z,100210.50
2023-01-13T17:35:40.737Z,100223.41
2023-01-13T17:38:07.336Z,100211.50
2023-01-13T17:40:33.723Z,100210.72
2023-01-13T17:43:00.090Z,100203.09
2023-01-13T17:45:26.793Z,100217.66
2023-01-13T17:47:57.882Z,100228.84
2023-01-13T17:50:24.643Z,100216.88
2023-01-13T17:52:51.004Z,100241.69
2023-01-13T17:55:17.338Z,100248.44
2023-01-13T17:57:43.699Z,100252.66
2023-01-13T18:00:12.064Z,100251.78
2023-01-13T18:02:38.496Z,100264.56
2023-01-13T18:05:05.132Z,100281.59
2023-01-13T18:07:31.505Z,100298.72
2023-01-13T18:09:57.826Z,100312.34
2023-01-13T18:12:24.281Z,100306.09
2023-01-13T18:14:50.606Z,100311.09
2023-01-13T18:17:18.309Z,100311.84
2023-01-13T18:20:03.366Z,100304.91
2023-01-13T18:22:48.018Z,100316.75
2023-01-13T18:25:32.914Z,100317.59
2023-01-13T18:28:02.462Z,100311.59
2023-01-13T18:30:28.821Z,100340.59
2023-01-13T18:32:55.744Z,100345.69
2023-01-13T18:35:22.097Z,100339.66
2023-01-13T18:37:48.508Z,100344.88
2023-01-13T18:40:14.880Z,100352.53
2023-01-13T18:42:58.328Z,100351.59
2023-01-13T18:45:27.453Z,100350.75
2023-01-13T18:47:55.634Z,100350.00
2023-01-13T18:50:22.984Z,100351.69
2023-01-13T18:52:49.645Z,100351.59
2023-01-13T18:55:16.121Z,100378.22
2023-01-13T18:57:42.642Z,100372.97
2023-01-13T19:00:15.757Z,100374.63
2023-01-13T19:02:42.574Z,100385.75
2023-01-13T19:05:09.927Z,100396.84
2023-01-13T19:07:36.793Z,100381.53
2023-01-13T19:10:04.573Z,100395.06
2023-01-13T19:12:33.662Z,100389.97
2023-01-13T19:15:01.780Z,100386.59
2023-01-13T19:17:33.474Z,100389.06
2023-01-13T19:20:00.481Z,100393.53
2023-01-13T19:22:30.479Z,100398.56
2023-01-13T19:24:57.791Z,100386.59
2023-01-13T19:27:25.321Z,100392.63
2023-01-13T19:29:53.592Z,100391.72
2023-01-13T19:32:22.014Z,100407.28
2023-01-13T19:34:50.623Z,100405.66
2023-01-13T19:37:17.386Z,100405.66
2023-01-13T19:39:43.794Z,100409.91
2023-01-13T19:42:30.531Z,100421.97
2023-01-13T19:45:16.435Z,100427.84
2023-01-13T19:47:45.267Z,100435.66
2023-01-13T19:50:13.517Z,100431.47
2023-01-13T19:52:40.103Z,100440.09
2023-01-13T19:55:06.848Z,100455.50
2023-01-13T19:57:33.219Z,100445.16
2023-01-13T19:59:59.544Z,100453.59
2023-01-13T20:02:31.342Z,100455.34
2023-01-13T20:05:00.657Z,100464.75
2023-01-13T20:07:29.193Z,100463.78
2023-01-13T20:09:58.766Z,100470.59
2023-01-13T20:12:26.124Z,100475.00
2023-01-13T20:14:52.815Z,100475.88
2023-01-13T20:17:21.235Z,100487.03
2023-01-13T20:19:47.814Z,100490.47
2023-01-13T20:22:14.549Z,100498.28
2023-01-13T20:24:40.950Z,100496.44
2023-01-13T20:27:08.071Z,100511.94
2023-01-13T20:29:34.974Z,100515.28
2023-01-13T20:32:01.395Z,100514.19
2023-01-13T20:34:27.876Z,100509.00
2023-01-13T20:36:54.397Z,100515.81
2023-01-13T20:39:24.801Z,100509.06
2023-01-13T20:42:09.480Z,100516.97
2023-01-13T20:44:35.796Z,100515.31
2023-01-13T20:47:02.796Z,100514.38
2023-01-13T20:49:38.387Z,100523.75
2023-01-13T20:52:09.797Z,100525.41
2023-01-13T20:54:37.550Z,100540.13
2023-01-13T20:57:05.199Z,100539.28
2023-01-13T20:59:31.638Z,100540.19
2023-01-13T21:01:58.567Z,100546.25
2023-01-13T21:04:25.527Z,100549.69
2023-01-13T21:06:52.282Z,100551.56
2023-01-13T21:09:19.075Z,100541.31
2023-01-13T21:12:03.866Z,100550.72
2023-01-13T21:14:48.578Z,100542.19
2023-01-13T21:17:34.436Z,100556.72
2023-01-13T21:20:01.630Z,100549.88
2023-01-13T21:22:28.728Z,100554.16
2023-01-13T21:24:55.524Z,100574.75
2023-01-13T21:27:21.957Z,100587.53
2023-01-13T21:29:48.288Z,100584.06
2023-01-13T21:32:14.615Z,100584.91
2023-01-13T21:34:41.081Z,100578.03
2023-01-13T21:37:07.615Z,100590.00
2023-01-13T21:39:34.015Z,100601.09
2023-01-13T21:42:18.676Z,100606.19
2023-01-13T21:45:03.377Z,100613.94
2023-01-13T21:47:48.239Z,100616.59
2023-01-13T21:50:28.547Z,100615.84
2023-01-13T21:52:55.880Z,100621.03
2023-01-13T21:55:25.297Z,100627.78
2023-01-13T21:58:11.694Z,100634.81
2023-01-13T22:00:39.366Z,100629.69
2023-01-13T22:03:07.174Z,100643.38
2023-01-13T22:05:33.749Z,100649.50
2023-01-13T22:08:00.636Z,100651.88
2023-01-13T22:10:29.812Z,100651.00
2023-01-13T22:12:58.629Z,100658.78
2023-01-13T22:15:27.983Z,100660.56
2023-01-13T22:17:55.445Z,100661.44
2023-01-13T22:20:22.357Z,100673.22
2023-01-13T22:22:49.644Z,100664.78
2023-01-13T22:25:17.009Z,100681.00
2023-01-13T22:27:44.648Z,100668.97
2023-01-13T22:30:14.096Z,100669.78
2023-01-13T22:32:40.539Z,100676.50
2023-01-13T22:35:09.210Z,100686.00
2023-01-13T22:37:36.125Z,100698.03
2023-01-13T22:40:04.203Z,100686.25
2023-01-13T22:42:30.547Z,100692.19
2023-01-13T22:44:56.905Z,100687.94
2023-01-13T22:47:23.290Z,100704.28
2023-01-13T22:49:49.691Z,100704.13
2023-01-13T22:52:17.159Z,100716.94
2023-01-13T22:54:43.945Z,100721.25
2023-01-13T22:57:10.517Z,100724.63
2023-01-13T22:59:36.942Z,100722.13
2023-01-13T23:02:03.348Z,100718.59
2023-01-13T23:04:29.786Z,100732.28
2023-01-13T23:06:56.230Z,100758.13
2023-01-13T23:09:22.723Z,100759.06
2023-01-13T23:11:49.070Z,100764.25
2023-01-13T23:14:15.495Z,100778.84
2023-01-13T23:16:41.937Z,100774.59
2023-01-13T23:19:08.388Z,100785.03
2023-01-13T23:21:37.359Z,100775.78
2023-01-13T23:24:05.896Z,100780.81
2023-01-13T23:26:33.363Z,100774.88
2023-01-13T23:29:06.353Z,100781.75
2023-01-13T23:31:32.957Z,100786.84
2023-01-13T23:33:59.484Z,100785.09
2023-01-13T23:36:27.783Z,100790.19
2023-01-13T23:38:54.629Z,100793.72
2023-01-13T23:41:25.629Z,100786.84
2023-01-13T23:43:54.078Z,100799.56
2023-01-13T23:46:20.782Z,100804.13
2023-01-13T23:48:47.788Z,100802.50
2023-01-13T23:51:14.755Z,100797.28
2023-01-13T23:53:44.501Z,100807.34
2023-01-13T23:56:16.543Z,100802.06
2023-01-13T23:58:43.772Z,100817.47
